createdAt,value
2022-10-20T00:01:03.450Z,101352.09
2022-10-20T00:04:05.652Z,101346.59
2022-10-20T00:07:07.587Z,101351.78
2022-10-20T00:10:09.797Z,101362.41
2022-10-20T00:13:11.683Z,101363.41
2022-10-20T00:16:14.221Z,101361.56
2022-10-20T00:19:16.160Z,101362.50
2022-10-20T00:22:18.310Z,101370.78
2022-10-20T00:25:20.205Z,101364.94
2022-10-20T00:28:22.363Z,101368.44
2022-10-20T00:31:24.689Z,101380.62
2022-10-20T00:34:26.862Z,101384.09
2022-10-20T00:37:28.779Z,101383.59
2022-10-20T00:43:47.294Z,101384.53
2022-10-20T00:46:49.601Z,101384.31
2022-10-20T00:49:51.717Z,101382.94
2022-10-20T00:52:54.727Z,101378.00
2022-10-20T00:55:58.230Z,101384.62
2022-10-20T00:59:01.720Z,101389.66
2022-10-20T01:02:06.487Z,101388.44
2022-10-20T01:05:08.876Z,101388.19
2022-10-20T01:08:10.781Z,101396.75
2022-10-20T01:11:31.648Z,101388.38
2022-10-20T01:14:52.120Z,101388.91
2022-10-20T01:17:57.317Z,101393.59
2022-10-20T01:21:11.125Z,101387.41
2022-10-20T01:24:19.384Z,101390.28
2022-10-20T01:27:32.323Z,101393.31
2022-10-20T01:30:37.568Z,101394.28
2022-10-20T01:33:43.853Z,101394.34
2022-10-20T01:36:49.084Z,101388.97
2022-10-20T01:39:54.099Z,101394.03
2022-10-20T01:42:58.693Z,101399.94
2022-10-20T01:46:01.402Z,101403.22
2022-10-20T01:49:04.983Z,101405.06
2022-10-20T01:52:06.958Z,101405.50
2022-10-20T01:55:17.626Z,101408.19
2022-10-20T01:58:28.701Z,101401.03
2022-10-20T02:01:50.401Z,101409.09
2022-10-20T02:05:11.754Z,101405.25
2022-10-20T02:08:20.729Z,101401.94
2022-10-20T02:11:22.893Z,101393.66
2022-10-20T02:14:24.959Z,101401.59
2022-10-20T02:17:28.891Z,101400.88
2022-10-20T02:20:31.453Z,101402.13
2022-10-20T02:23:37.313Z,101410.69
2022-10-20T02:26:40.023Z,101408.53
2022-10-20T02:29:46.589Z,101406.19
2022-10-20T02:32:50.605Z,101415.50
2022-10-20T02:35:56.614Z,101413.50
2022-10-20T02:38:58.495Z,101411.91
2022-10-20T02:42:00.682Z,101412.38
2022-10-20T02:45:02.860Z,101414.03
2022-10-20T02:48:07.631Z,101425.41
2022-10-20T02:51:10.004Z,101428.00
2022-10-20T02:54:12.156Z,101438.50
2022-10-20T02:57:14.042Z,101433.87
2022-10-20T03:00:16.343Z,101426.63
2022-10-20T03:03:18.548Z,101441.53
2022-10-20T03:06:20.750Z,101442.97
2022-10-20T03:09:22.645Z,101441.34
2022-10-20T03:12:27.780Z,101445.12
2022-10-20T03:15:32.527Z,101449.84
2022-10-20T03:18:34.750Z,101446.69
2022-10-20T03:21:36.665Z,101449.94
2022-10-20T03:24:38.881Z,101464.06
2022-10-20T03:27:40.788Z,101459.12
2022-10-20T03:30:43.362Z,101459.78
2022-10-20T03:33:45.258Z,101453.72
2022-10-20T03:36:47.444Z,101450.06
2022-10-20T03:39:49.374Z,101455.25
2022-10-20T03:42:51.754Z,101461.97
2022-10-20T03:46:02.335Z,101457.25
2022-10-20T03:49:04.715Z,101455.09
2022-10-20T03:52:06.639Z,101456.59
2022-10-20T03:55:08.928Z,101464.88
2022-10-20T03:58:10.810Z,101463.84
2022-10-20T04:01:17.272Z,101470.59
2022-10-20T04:04:19.537Z,101463.25
2022-10-20T04:07:21.439Z,101467.91
2022-10-20T04:10:23.609Z,101467.00
2022-10-20T04:13:25.506Z,101463.31
2022-10-20T04:16:27.645Z,101466.91
2022-10-20T04:19:29.508Z,101465.44
2022-10-20T04:22:31.741Z,101471.84
2022-10-20T04:25:33.651Z,101466.41
2022-10-20T04:28:35.892Z,101459.19
2022-10-20T04:31:37.781Z,101463.91
2022-10-20T04:34:39.979Z,101459.28
2022-10-20T04:37:41.891Z,101459.12
2022-10-20T04:40:44.058Z,101463.84
2022-10-20T04:43:50.343Z,101459.56
2022-10-20T04:46:53.895Z,101459.34
2022-10-20T04:49:55.801Z,101459.44
2022-10-20T04:52:58.904Z,101460.50
2022-10-20T04:56:01.248Z,101467.37
2022-10-20T04:59:04.059Z,101465.41
2022-10-20T05:02:06.057Z,101464.28
2022-10-20T05:05:08.743Z,101462.94
2022-10-20T05:08:10.673Z,101471.03
2022-10-20T05:11:13.725Z,101472.53
2022-10-20T05:14:15.630Z,101481.44
2022-10-20T05:17:19.043Z,101488.16
2022-10-20T05:20:20.995Z,101484.00
2022-10-20T05:23:23.227Z,101494.13
2022-10-20T05:26:36.684Z,101498.69
2022-10-20T05:29:38.948Z,101497.91
2022-10-20T05:32:40.845Z,101503.50
2022-10-20T05:35:43.275Z,101511.28
2022-10-20T05:38:45.363Z,101521.09
2022-10-20T05:41:47.647Z,101520.41
2022-10-20T05:44:49.555Z,101532.37
2022-10-20T05:47:51.726Z,101528.34
2022-10-20T05:50:53.684Z,101537.91
2022-10-20T05:53:56.590Z,101535.63
2022-10-20T05:57:01.311Z,101539.63
2022-10-20T06:00:04.125Z,101536.62
2022-10-20T06:03:16.156Z,101534.50
2022-10-20T06:06:22.501Z,101549.75
2022-10-20T06:09:24.557Z,101543.62
2022-10-20T06:12:26.832Z,101553.09
2022-10-20T06:15:28.778Z,101556.25
2022-10-20T06:18:31.292Z,101553.28
2022-10-20T06:21:33.871Z,101565.94
2022-10-20T06:24:36.089Z,101571.94
2022-10-20T06:27:38.013Z,101577.50
2022-10-20T06:30:40.226Z,101566.38
2022-10-20T06:33:42.382Z,101576.94
2022-10-20T06:36:45.988Z,101580.41
2022-10-20T06:39:47.885Z,101585.44
2022-10-20T06:42:50.122Z,101591.47
2022-10-20T06:45:56.439Z,101595.13
2022-10-20T06:49:05.950Z,101585.34
2022-10-20T06:52:08.152Z,101593.84
2022-10-20T06:55:10.445Z,101591.75
2022-10-20T06:58:12.412Z,101600.25
2022-10-20T07:01:17.638Z,101596.31
2022-10-20T07:04:19.544Z,101596.19
2022-10-20T07:07:21.720Z,101599.69
2022-10-20T07:10:23.601Z,101605.59
2022-10-20T07:13:25.857Z,101610.97
2022-10-20T07:16:29.035Z,101614.13
2022-10-20T07:19:31.793Z,101619.47
2022-10-20T07:22:33.880Z,101618.62
2022-10-20T07:25:36.362Z,101615.69
2022-10-20T07:28:39.756Z,101614.91
2022-10-20T07:31:43.395Z,101614.34
2022-10-20T07:34:45.385Z,101617.84
2022-10-20T07:37:47.557Z,101615.97
2022-10-20T07:40:49.419Z,101625.47
2022-10-20T07:43:52.031Z,101619.94
2022-10-20T07:46:53.936Z,101614.00
2022-10-20T07:49:56.083Z,101620.09
2022-10-20T07:52:57.975Z,101612.91
2022-10-20T07:56:00.170Z,101625.44
2022-10-20T07:59:02.093Z,101625.53
2022-10-20T08:02:04.342Z,101621.19
2022-10-20T08:05:07.088Z,101625.22
2022-10-20T08:08:08.974Z,101625.19
2022-10-20T08:11:11.671Z,101621.13
2022-10-20T08:14:13.616Z,101628.91
2022-10-20T08:17:15.816Z,101620.63
2022-10-20T08:20:22.402Z,101623.78
2022-10-20T08:23:27.196Z,101629.53
2022-10-20T08:26:29.312Z,101633.63
2022-10-20T08:29:31.616Z,101637.63
2022-10-20T08:32:33.550Z,101640.03
2022-10-20T08:35:35.744Z,101639.34
2022-10-20T08:38:38.165Z,101637.72
2022-10-20T08:42:06.404Z,101636.87
2022-10-20T08:45:05.802Z,101632.00
2022-10-20T08:48:14.152Z,101635.06
2022-10-20T08:51:18.233Z,101637.72
2022-10-20T08:54:20.487Z,101633.03
2022-10-20T08:57:32.399Z,101637.72
2022-10-20T09:00:38.068Z,101637.13
2022-10-20T09:03:40.684Z,101640.09
2022-10-20T09:06:44.013Z,101644.19
2022-10-20T09:09:46.574Z,101635.53
2022-10-20T09:12:49.390Z,101640.28
2022-10-20T09:15:53.921Z,101637.97
2022-10-20T09:19:01.238Z,101640.16
2022-10-20T09:22:04.850Z,101637.13
2022-10-20T09:25:12.557Z,101640.28
2022-10-20T09:28:22.458Z,101634.69
2022-10-20T09:31:32.530Z,101644.00
2022-10-20T09:34:35.100Z,101642.06
2022-10-20T09:37:37.273Z,101647.28
2022-10-20T09:40:44.421Z,101644.28
2022-10-20T09:43:49.007Z,101645.84
2022-10-20T09:46:52.764Z,101640.47
2022-10-20T09:50:00.899Z,101631.94
2022-10-20T09:53:05.383Z,101640.47
2022-10-20T09:56:07.751Z,101638.00
2022-10-20T09:59:19.243Z,101630.31
2022-10-20T10:02:21.402Z,101628.94
2022-10-20T10:05:32.607Z,101636.81
2022-10-20T10:08:45.467Z,101634.16
2022-10-20T10:11:56.706Z,101632.59
2022-10-20T10:15:04.144Z,101631.62
2022-10-20T10:18:13.989Z,101629.75
2022-10-20T10:21:17.344Z,101630.25
2022-10-20T10:24:33.331Z,101619.53
2022-10-20T10:27:36.467Z,101617.00
2022-10-20T10:30:38.949Z,101615.41
2022-10-20T10:33:42.035Z,101605.47
2022-10-20T10:36:44.517Z,101607.91
2022-10-20T10:39:46.406Z,101611.47
2022-10-20T10:43:03.491Z,101592.63
2022-10-20T10:46:17.901Z,101597.47
2022-10-20T10:49:20.120Z,101589.78
2022-10-20T10:52:29.095Z,101584.53
2022-10-20T10:55:48.177Z,101585.31
2022-10-20T10:59:06.232Z,101572.72
2022-10-20T11:02:27.040Z,101571.25
2022-10-20T11:05:47.906Z,101566.50
2022-10-20T11:09:08.915Z,101555.84
2022-10-20T11:12:29.451Z,101544.38
2022-10-20T11:15:37.816Z,101542.00
2022-10-20T11:18:49.111Z,101540.34
2022-10-20T11:22:13.323Z,101540.25
2022-10-20T11:25:27.875Z,101529.72
2022-10-20T11:28:36.460Z,101524.34
2022-10-20T11:31:44.479Z,101532.16
2022-10-20T11:35:01.938Z,101518.06
2022-10-20T11:38:23.938Z,101517.00
2022-10-20T11:41:49.535Z,101509.97
2022-10-20T11:44:52.992Z,101497.22
2022-10-20T11:48:13.958Z,101500.28
2022-10-20T11:51:15.829Z,101496.84
2022-10-20T11:54:24.648Z,101496.50
2022-10-20T11:57:32.684Z,101487.50
2022-10-20T12:00:48.569Z,101488.09
2022-10-20T12:04:09.188Z,101486.12
2022-10-20T12:07:37.621Z,101485.75
2022-10-20T12:10:39.927Z,101493.66
2022-10-20T12:13:55.715Z,101491.31
2022-10-20T12:17:04.730Z,101480.63
2022-10-20T12:20:21.917Z,101484.13
2022-10-20T12:23:42.931Z,101477.84
2022-10-20T12:27:04.106Z,101477.66
2022-10-20T12:30:21.517Z,101472.38
2022-10-20T12:33:39.055Z,101469.19
2022-10-20T12:36:41.353Z,101475.88
2022-10-20T12:39:43.622Z,101465.31
2022-10-20T12:42:51.961Z,101460.22
2022-10-20T12:45:56.788Z,101460.41
2022-10-20T12:49:01.217Z,101450.97
2022-10-20T12:52:04.923Z,101454.13
2022-10-20T12:55:13.796Z,101447.25
2022-10-20T12:58:18.699Z,101443.72
2022-10-20T13:01:21.093Z,101443.09
2022-10-20T13:04:43.312Z,101433.59
2022-10-20T13:07:50.342Z,101429.22
2022-10-20T13:10:55.688Z,101420.19
2022-10-20T13:14:03.011Z,101424.50
2022-10-20T13:17:16.046Z,101422.00
2022-10-20T13:20:28.427Z,101426.41
2022-10-20T13:23:30.311Z,101422.88
2022-10-20T13:26:46.384Z,101424.38
2022-10-20T13:29:48.427Z,101430.22
2022-10-20T13:33:11.291Z,101432.00
2022-10-20T13:36:37.930Z,101431.66
2022-10-20T13:39:58.985Z,101421.97
2022-10-20T13:43:00.843Z,101416.59
2022-10-20T13:46:11.443Z,101414.91
2022-10-20T13:49:19.459Z,101408.44
2022-10-20T13:52:21.964Z,101415.81
2022-10-20T13:55:25.941Z,101409.41
2022-10-20T13:58:28.303Z,101405.53
2022-10-20T14:01:31.187Z,101405.00
2022-10-20T14:04:34.548Z,101405.06
2022-10-20T14:07:44.056Z,101400.94
2022-10-20T14:10:52.280Z,101408.03
2022-10-20T14:13:54.206Z,101398.56
2022-10-20T14:16:58.019Z,101395.94
2022-10-20T14:20:18.136Z,101390.34
2022-10-20T14:23:20.818Z,101389.37
2022-10-20T14:26:24.255Z,101385.13
2022-10-20T14:29:29.052Z,101389.31
2022-10-20T14:32:32.275Z,101381.56
2022-10-20T14:35:42.723Z,101389.41
2022-10-20T14:38:46.906Z,101393.03
2022-10-20T14:41:49.074Z,101391.97
2022-10-20T14:44:51.804Z,101383.34
2022-10-20T14:47:55.917Z,101386.44
2022-10-20T14:50:57.973Z,101389.19
2022-10-20T14:54:14.082Z,101387.03
2022-10-20T14:57:15.987Z,101390.88
2022-10-20T15:00:44.482Z,101384.44
2022-10-20T15:03:46.610Z,101385.56
2022-10-20T15:06:48.983Z,101383.97
2022-10-20T15:09:58.492Z,101377.41
2022-10-20T15:13:04.019Z,101371.56
2022-10-20T15:16:07.836Z,101373.22
2022-10-20T15:19:16.305Z,101370.00
2022-10-20T15:22:18.400Z,101371.81
2022-10-20T15:25:21.229Z,101375.34
2022-10-20T15:28:26.059Z,101368.47
2022-10-20T15:31:30.131Z,101374.06
2022-10-20T15:34:32.101Z,101365.41
2022-10-20T15:37:34.358Z,101360.59
2022-10-20T15:40:36.256Z,101362.56
2022-10-20T15:43:38.430Z,101364.97
2022-10-20T15:46:41.147Z,101361.03
2022-10-20T15:49:43.337Z,101360.09
2022-10-20T15:52:45.215Z,101358.22
2022-10-20T15:55:47.443Z,101355.00
2022-10-20T15:58:52.051Z,101356.59
2022-10-20T16:01:55.073Z,101354.25
2022-10-20T16:04:57.247Z,101353.22
2022-10-20T16:07:59.132Z,101357.84
2022-10-20T16:11:04.656Z,101351.87
2022-10-20T16:14:06.624Z,101361.34
2022-10-20T16:17:08.770Z,101363.22
2022-10-20T16:20:10.746Z,101364.41
2022-10-20T16:23:13.313Z,101369.91
2022-10-20T16:26:15.339Z,101362.63
2022-10-20T16:29:17.546Z,101362.87
2022-10-20T16:32:19.430Z,101366.91
2022-10-20T16:35:22.563Z,101359.16
2022-10-20T16:38:24.460Z,101367.41
2022-10-20T16:41:26.765Z,101370.81
2022-10-20T16:44:28.696Z,101372.28
2022-10-20T16:47:30.985Z,101372.63
2022-10-20T16:50:32.906Z,101373.91
2022-10-20T16:53:35.345Z,101380.66
2022-10-20T16:56:37.479Z,101377.38
2022-10-20T16:59:39.874Z,101371.50
2022-10-20T17:02:44.057Z,101377.06
2022-10-20T17:05:46.229Z,101364.41
2022-10-20T17:08:48.589Z,101366.56
2022-10-20T17:11:50.912Z,101371.25
2022-10-20T17:14:52.773Z,101375.19
2022-10-20T17:17:54.974Z,101369.37
2022-10-20T17:20:56.933Z,101374.72
2022-10-20T17:23:59.671Z,101368.31
2022-10-20T17:27:01.550Z,101379.69
2022-10-20T17:30:03.916Z,101370.59
2022-10-20T17:33:05.824Z,101378.12
2022-10-20T17:36:08.474Z,101373.75
2022-10-20T17:39:14.093Z,101372.34
2022-10-20T17:42:16.276Z,101370.66
2022-10-20T17:45:18.277Z,101370.88
2022-10-20T17:48:20.486Z,101374.31
2022-10-20T17:51:23.655Z,101376.37
2022-10-20T17:54:25.835Z,101383.59
2022-10-20T17:57:29.616Z,101393.97
2022-10-20T18:00:54.941Z,101381.06
2022-10-20T18:03:58.318Z,101387.91
2022-10-20T18:07:00.202Z,101386.34
2022-10-20T18:10:02.414Z,101378.97
2022-10-20T18:13:04.310Z,101375.75
2022-10-20T18:16:11.094Z,101374.91
2022-10-20T18:19:14.346Z,101380.03
2022-10-20T18:22:16.580Z,101379.66
2022-10-20T18:25:18.443Z,101380.25
2022-10-20T18:28:20.669Z,101375.91
2022-10-20T18:31:23.793Z,101384.44
2022-10-20T18:34:25.971Z,101377.59
2022-10-20T18:37:28.183Z,101379.25
2022-10-20T18:40:31.494Z,101381.28
2022-10-20T18:43:33.523Z,101380.50
2022-10-20T18:46:35.828Z,101381.88
2022-10-20T18:49:37.725Z,101376.09
2022-10-20T18:52:39.890Z,101377.19
2022-10-20T18:55:41.794Z,101380.31
2022-10-20T18:58:51.979Z,101375.09
2022-10-20T19:01:53.909Z,101380.94
2022-10-20T19:04:57.823Z,101374.16
2022-10-20T19:07:59.723Z,101374.62
2022-10-20T19:11:02.037Z,101381.16
2022-10-20T19:14:04.258Z,101374.53
2022-10-20T19:17:06.458Z,101381.63
2022-10-20T19:20:08.481Z,101384.25
2022-10-20T19:23:10.686Z,101387.53
2022-10-20T19:26:26.512Z,101384.41
2022-10-20T19:29:29.046Z,101379.87
2022-10-20T19:32:30.940Z,101389.09
2022-10-20T19:35:33.225Z,101382.81
2022-10-20T19:38:35.160Z,101380.66
2022-10-20T19:41:37.478Z,101378.25
2022-10-20T19:44:39.986Z,101379.25
2022-10-20T19:47:42.219Z,101378.25
2022-10-20T19:50:44.140Z,101383.53
2022-10-20T19:53:46.735Z,101380.41
2022-10-20T19:56:48.669Z,101389.53
2022-10-20T19:59:50.940Z,101389.75
2022-10-20T20:02:52.917Z,101377.06
2022-10-20T20:06:17.932Z,101374.69
2022-10-20T20:09:19.839Z,101381.97
2022-10-20T20:12:22.021Z,101386.84
2022-10-20T20:15:24.195Z,101382.91
2022-10-20T20:18:26.407Z,101384.06
2022-10-20T20:21:28.423Z,101390.03
2022-10-20T20:24:30.637Z,101388.56
2022-10-20T20:27:32.527Z,101388.09
2022-10-20T20:30:34.700Z,101392.03
2022-10-20T20:33:36.734Z,101382.97
2022-10-20T20:36:39.478Z,101383.63
2022-10-20T20:39:41.443Z,101391.41
2022-10-20T20:42:43.636Z,101393.53
2022-10-20T20:45:45.545Z,101389.81
2022-10-20T20:48:47.765Z,101386.47
2022-10-20T20:51:49.658Z,101388.38
2022-10-20T20:54:51.866Z,101384.16
2022-10-20T20:57:53.788Z,101385.50
2022-10-20T21:01:09.474Z,101383.94
2022-10-20T21:04:12.761Z,101388.66
2022-10-20T21:07:14.997Z,101384.88
2022-10-20T21:10:17.049Z,101383.59
2022-10-20T21:13:19.265Z,101390.25
2022-10-20T21:16:25.435Z,101389.47
2022-10-20T21:19:27.592Z,101383.78
2022-10-20T21:22:29.505Z,101396.88
2022-10-20T21:25:31.710Z,101394.25
2022-10-20T21:28:33.694Z,101381.34
2022-10-20T21:31:36.260Z,101390.09
2022-10-20T21:34:38.136Z,101389.97
2022-10-20T21:37:40.339Z,101392.59
2022-10-20T21:40:42.245Z,101388.66
2022-10-20T21:43:45.693Z,101391.16
2022-10-20T21:46:49.312Z,101394.25
2022-10-20T21:49:51.489Z,101386.47
2022-10-20T21:52:53.429Z,101383.13
2022-10-20T21:55:55.685Z,101384.22
2022-10-20T21:58:57.577Z,101384.62
2022-10-20T22:02:00.584Z,101385.34
2022-10-20T22:05:02.953Z,101379.28
2022-10-20T22:08:04.968Z,101382.03
2022-10-20T22:11:08.773Z,101378.56
2022-10-20T22:14:11.103Z,101375.84
2022-10-20T22:17:14.253Z,101372.69
2022-10-20T22:20:16.204Z,101375.31
2022-10-20T22:23:18.527Z,101383.38
2022-10-20T22:26:20.856Z,101379.53
2022-10-20T22:29:23.458Z,101383.94
2022-10-20T22:32:25.417Z,101384.28
2022-10-20T22:35:27.701Z,101389.28
2022-10-20T22:38:29.664Z,101387.97
2022-10-20T22:41:31.846Z,101390.34
2022-10-20T22:44:33.746Z,101390.47
2022-10-20T22:47:36.027Z,101396.91
2022-10-20T22:50:37.925Z,101389.53
2022-10-20T22:53:40.307Z,101377.50
2022-10-20T22:56:42.243Z,101385.59
2022-10-20T22:59:44.467Z,101386.25
2022-10-20T23:02:46.647Z,101387.97
2022-10-20T23:05:48.822Z,101385.84
2022-10-20T23:08:52.378Z,101392.25
2022-10-20T23:11:54.602Z,101390.00
2022-10-20T23:14:56.823Z,101386.09
2022-10-20T23:17:58.967Z,101374.09
2022-10-20T23:21:01.025Z,101357.38
2022-10-20T23:24:03.290Z,101354.34
2022-10-20T23:27:05.719Z,101353.69
2022-10-20T23:30:08.243Z,101363.69
2022-10-20T23:33:10.149Z,101362.31
2022-10-20T23:36:13.041Z,101363.97
2022-10-20T23:39:14.963Z,101372.09
2022-10-20T23:42:17.369Z,101377.06
2022-10-20T23:45:19.296Z,101370.22
2022-10-20T23:48:21.572Z,101371.31
2022-10-20T23:51:23.501Z,101363.56
2022-10-20T23:54:25.676Z,101365.63
2022-10-20T23:57:27.569Z,101362.50
